Time;durP1;ratioP1;P1;durP2;ratioP2;P2;SDS_P1;SDS_P2;PMS_P1;PMS_P2;Temp;Humidity;BMP_temperature;BMP_pressure;BME280_temperature;BME280_humidity;BME280_pressure;Samples;Min_cycle;Max_cycle;Signal;HPM_P1;HPM_P2
2021/10/01 00:02:18;;;;;;;10.95;2.05;;;;;;;10.62;70.69;101835.50;5032173;28;20052;-69
2021/10/01 00:04:43;;;;;;;8.45;1.60;;;;;;;10.76;70.00;101827.38;5029963;28;20339;-69
2021/10/01 00:07:10;;;;;;;11.57;1.60;;;;;;;10.71;70.00;101825.16;5024658;28;20071;-69
2021/10/01 00:09:37;;;;;;;6.53;1.33;;;;;;;10.66;70.04;101821.31;5029900;28;20044;-69
2021/10/01 00:12:04;;;;;;;7.05;1.50;;;;;;;10.60;70.58;101822.66;5027244;28;20136;-69
2021/10/01 00:14:29;;;;;;;5.18;1.17;;;;;;;10.58;70.62;101815.97;5029611;28;20106;-69
2021/10/01 00:16:56;;;;;;;6.50;1.38;;;;;;;10.55;71.20;101813.63;5034365;28;20025;-69
2021/10/01 00:19:22;;;;;;;9.30;1.75;;;;;;;10.53;71.10;101813.78;5023735;28;20033;-69
2021/10/01 00:21:48;;;;;;;5.03;1.10;;;;;;;10.57;70.72;101804.78;5028577;28;20026;-69
2021/10/01 00:24:20;;;;;;;8.18;1.50;;;;;;;10.53;71.10;101811.19;5013106;28;20048;-69
2021/10/01 00:26:46;;;;;;;4.38;1.30;;;;;;;10.52;71.37;101805.16;5034449;28;20491;-69
2021/10/01 00:29:12;;;;;;;12.90;1.63;;;;;;;10.49;71.55;101800.25;5033461;28;20112;-69
2021/10/01 00:31:38;;;;;;;9.88;1.50;;;;;;;10.51;71.43;101795.75;5034725;28;20395;-69
2021/10/01 00:34:06;;;;;;;6.60;1.45;;;;;;;10.43;71.73;101792.16;5030114;28;20128;-69
2021/10/01 00:36:32;;;;;;;4.72;1.23;;;;;;;10.36;72.25;101789.31;5028525;28;20037;-69
2021/10/01 00:38:59;;;;;;;6.72;1.95;;;;;;;10.34;72.31;101791.22;5009456;28;20037;-69
2021/10/01 00:41:28;;;;;;;15.13;1.55;;;;;;;10.26;72.73;101785.78;5038080;28;20120;-69
2021/10/01 00:43:54;;;;;;;9.25;1.23;;;;;;;10.33;73.02;101786.97;5028664;28;20541;-69
2021/10/01 00:46:20;;;;;;;9.00;1.48;;;;;;;10.22;72.80;101787.00;5031437;28;20029;-69
2021/10/01 00:48:46;;;;;;;7.05;1.50;;;;;;;10.12;73.52;101777.41;5018419;28;20384;-69
2021/10/01 00:51:12;;;;;;;3.95;1.10;;;;;;;10.09;73.56;101776.84;5019057;28;20390;-69
2021/10/01 00:53:37;;;;;;;5.68;1.10;;;;;;;10.06;73.74;101770.16;5023536;28;20044;-69
2021/10/01 00:56:03;;;;;;;6.63;1.50;;;;;;;10.08;73.73;101768.25;5032362;28;20483;-69
2021/10/01 00:58:29;;;;;;;7.40;1.33;;;;;;;10.05;73.78;101765.09;5026169;28;20029;-69
2021/10/01 01:01:11;;;;;;;9.23;1.50;;;;;;;10.04;73.93;101766.03;5035305;28;20033;-69
2021/10/01 01:03:44;;;;;;;4.15;1.05;;;;;;;10.00;73.71;101762.06;5023071;28;20030;-69
2021/10/01 01:06:21;;;;;;;9.50;1.80;;;;;;;10.09;73.34;101763.88;5019288;28;20668;-69
2021/10/01 01:09:02;;;;;;;9.15;2.13;;;;;;;10.04;73.60;101760.84;5027676;28;20118;-69
2021/10/01 01:11:49;;;;;;;6.68;1.85;;;;;;;9.98;74.21;101766.56;5029426;28;20033;-69
2021/10/01 01:14:22;;;;;;;10.43;1.98;;;;;;;9.96;74.07;101758.91;5017428;28;21063;-69
2021/10/01 01:16:49;;;;;;;;;;;;;;;9.87;74.34;101762.28;5021669;28;20033;-69
2021/10/01 01:19:37;;;;;;;6.38;1.23;;;;;;;9.97;73.70;101767.53;5041046;28;20397;-69
2021/10/01 01:22:11;;;;;;;6.15;1.45;;;;;;;9.99;73.37;101758.66;5022887;28;20071;-69
2021/10/01 01:25:14;;;;;;;6.90;1.80;;;;;;;9.86;73.92;101755.47;5030213;28;20542;-69
2021/10/01 01:27:52;;;;;;;11.73;2.40;;;;;;;9.78;74.43;101758.69;5023384;28;20449;-69
2021/10/01 01:30:22;;;;;;;4.47;1.05;;;;;;;9.76;74.29;101752.81;5047696;28;20121;-69
2021/10/01 01:33:21;;;;;;;8.43;1.35;;;;;;;9.77;74.58;101751.84;5021121;28;20034;-69
2021/10/01 01:35:51;;;;;;;7.57;1.40;;;;;;;9.80;74.14;101745.63;5040728;28;20041;-69
2021/10/01 01:38:38;;;;;;;8.05;1.20;;;;;;;9.76;74.40;101747.63;5005236;28;20163;-69
2021/10/01 01:41:05;;;;;;;9.73;1.30;;;;;;;9.73;74.43;101737.53;5028465;28;20033;-68
2021/10/01 01:43:33;;;;;;;5.90;1.23;;;;;;;9.65;74.62;101737.34;5013178;28;20033;-69
2021/10/01 01:46:01;;;;;;;7.50;1.23;;;;;;;9.68;74.41;101740.50;5014088;28;20064;-70
2021/10/01 01:48:27;;;;;;;7.43;1.20;;;;;;;9.60;75.16;101742.88;5025181;28;20041;-69
2021/10/01 01:50:55;;;;;;;5.40;0.95;;;;;;;9.53;75.48;101734.81;5033150;28;20117;-69
2021/10/01 01:53:21;;;;;;;5.25;1.10;;;;;;;9.55;75.31;101738.09;5032988;28;20589;-69
2021/10/01 01:55:48;;;;;;;2.40;1.25;;;;;;;9.53;75.20;101728.81;5037576;28;20112;-69
2021/10/01 01:58:17;;;;;;;9.18;1.20;;;;;;;9.45;75.65;101726.03;5020552;28;20512;-69
2021/10/01 02:01:06;;;;;;;2.50;1.27;;;;;;;9.45;74.97;101729.44;5037041;28;20041;-69
2021/10/01 02:03:35;;;;;;;3.97;1.20;;;;;;;9.41;75.45;101725.47;5034627;28;20031;-69
2021/10/01 02:06:11;;;;;;;6.57;1.15;;;;;;;9.47;74.98;101717.19;5030723;28;20033;-69
2021/10/01 02:08:38;;;;;;;4.82;0.98;;;;;;;9.45;75.19;101718.28;5032970;28;20076;-69
2021/10/01 02:11:05;;;;;;;4.30;1.00;;;;;;;9.50;75.23;101714.34;5034077;28;20037;-69
2021/10/01 02:13:33;;;;;;;4.30;0.85;;;;;;;9.46;74.98;101712.97;5026242;28;20487;-69
2021/10/01 02:16:10;;;;;;;14.98;2.63;;;;;;;9.41;75.18;101701.34;5030544;28;20488;-69
2021/10/01 02:18:40;;;;;;;8.48;1.35;;;;;;;9.45;75.18;101700.16;5032949;28;20025;-69
2021/10/01 02:21:08;;;;;;;6.88;1.10;;;;;;;9.30;75.45;101697.03;5033369;28;20084;-69
2021/10/01 02:23:35;;;;;;;9.38;1.08;;;;;;;9.19;75.85;101690.16;5031983;28;20054;-69
2021/10/01 02:29:05;;;;;;;8.02;1.55;;;;;;;9.20;76.06;101691.81;5030742;28;20071;-69
2021/10/01 02:31:48;;;;;;;10.85;2.58;;;;;;;9.14;75.84;101692.31;5032652;28;20033;-69
2021/10/01 02:34:16;;;;;;;7.68;0.98;;;;;;;9.12;75.77;101684.66;5014170;28;20030;-69
2021/10/01 02:36:41;;;;;;;6.78;1.00;;;;;;;9.14;75.78;101689.72;5031171;28;20499;-68
2021/10/01 02:39:07;;;;;;;3.05;0.90;;;;;;;9.10;76.12;101683.16;5028449;28;20319;-69
2021/10/01 02:41:32;;;;;;;8.55;1.27;;;;;;;9.05;76.21;101686.09;5027954;28;20029;-69
2021/10/01 02:43:58;;;;;;;5.50;1.10;;;;;;;9.13;75.96;101681.13;5013009;28;20365;-69
2021/10/01 02:46:23;;;;;;;5.35;1.23;;;;;;;9.11;75.63;101677.84;5039394;28;20083;-69
2021/10/01 02:48:52;;;;;;;4.50;0.93;;;;;;;9.07;75.98;101678.22;5028180;28;20112;-69
2021/10/01 02:51:25;;;;;;;6.55;1.25;;;;;;;9.17;75.65;101676.53;5024872;28;20112;-69
2021/10/01 02:54:08;;;;;;;3.30;1.00;;;;;;;9.09;75.81;101668.56;5026528;28;20025;-69
2021/10/01 02:56:42;;;;;;;3.97;1.65;;;;;;;9.01;76.11;101666.63;5033064;28;20040;-69
2021/10/01 02:59:11;;;;;;;9.65;1.08;;;;;;;9.02;76.21;101668.25;5031076;28;20055;-69
2021/10/01 03:01:40;;;;;;;3.63;1.10;;;;;;;9.11;75.77;101658.91;5051545;28;20033;-69
2021/10/01 03:04:09;;;;;;;6.75;1.00;;;;;;;9.07;75.91;101660.13;5028534;28;20115;-69
2021/10/01 03:06:40;;;;;;;4.15;1.10;;;;;;;8.98;76.20;101666.03;5036389;28;20025;-69
2021/10/01 03:09:07;;;;;;;5.85;0.98;;;;;;;9.08;76.16;101657.41;5031584;28;20124;-69
2021/10/01 03:11:38;;;;;;;4.90;1.00;;;;;;;9.02;76.20;101659.66;5028710;28;20506;-69
2021/10/01 03:14:07;;;;;;;11.30;1.40;;;;;;;9.09;75.81;101650.47;5010581;28;20087;-68
2021/10/01 03:16:33;;;;;;;5.53;1.33;;;;;;;9.14;75.71;101649.13;5029411;28;20187;-69
2021/10/01 03:19:03;;;;;;;4.32;1.15;;;;;;;9.13;75.96;101650.06;5018080;28;20033;-69
2021/10/01 03:21:30;;;;;;;3.97;0.98;;;;;;;9.05;76.01;101647.31;5032484;28;20414;-69
2021/10/01 03:23:56;;;;;;;6.55;1.00;;;;;;;9.14;76.17;101653.50;5027220;28;20047;-69
2021/10/01 03:26:25;;;;;;;5.93;0.95;;;;;;;9.08;76.31;101652.22;5040840;28;20029;-72
2021/10/01 03:28:51;;;;;;;4.18;1.30;;;;;;;9.14;76.46;101649.13;5027052;28;20530;-71
2021/10/01 03:31:17;;;;;;;3.83;1.13;;;;;;;9.15;76.08;101644.78;5033733;28;20041;-71
2021/10/01 03:33:45;;;;;;;3.63;1.00;;;;;;;9.14;76.21;101643.97;5032476;28;20231;-71
2021/10/01 03:36:11;;;;;;;4.85;1.63;;;;;;;9.08;76.82;101644.47;5037850;28;20025;-71
2021/10/01 03:38:44;;;;;;;5.47;0.98;;;;;;;9.10;76.74;101646.94;5016243;28;20033;-71
2021/10/01 03:41:10;;;;;;;8.05;1.10;;;;;;;9.16;76.59;101642.06;5029793;28;20033;-71
2021/10/01 03:43:36;;;;;;;9.25;2.17;;;;;;;9.42;75.68;101631.34;5024868;28;20037;-71
2021/10/01 03:46:02;;;;;;;3.33;1.05;;;;;;;9.41;75.34;101632.28;5026664;28;20108;-71
2021/10/01 03:48:29;;;;;;;7.20;1.08;;;;;;;9.36;75.68;101639.59;5028199;28;20087;-72
2021/10/01 03:51:00;;;;;;;6.18;1.13;;;;;;;9.37;75.92;101636.06;5023753;28;20038;-72
2021/10/01 03:53:26;;;;;;;2.47;0.90;;;;;;;9.43;75.59;101634.75;5015344;28;20036;-71
2021/10/01 03:55:52;;;;;;;4.18;1.08;;;;;;;9.45;75.33;101632.84;5025293;28;20495;-71
2021/10/01 03:58:18;;;;;;;4.95;0.65;;;;;;;9.48;75.42;101633.41;5026731;28;20040;-72
2021/10/01 04:00:45;;;;;;;3.53;1.30;;;;;;;9.46;75.54;101630.13;5035709;28;20048;-71
2021/10/01 04:03:13;;;;;;;8.05;1.63;;;;;;;9.53;75.49;101623.50;5029712;28;20357;-70
2021/10/01 04:05:44;;;;;;;4.93;1.17;;;;;;;9.51;75.45;101627.13;5028512;28;20030;-71
2021/10/01 04:08:12;;;;;;;5.43;1.25;;;;;;;9.55;75.38;101618.19;5033303;28;20048;-73
2021/10/01 04:10:41;;;;;;;7.43;1.17;;;;;;;9.54;75.18;101621.72;5039164;28;20405;-71
2021/10/01 04:13:07;;;;;;;5.78;1.08;;;;;;;9.54;75.09;101611.34;5025374;28;20061;-73
2021/10/01 04:15:38;;;;;;;9.05;1.95;;;;;;;9.61;74.41;101615.06;5013208;28;20034;-71
2021/10/01 04:18:04;;;;;;;3.92;0.95;;;;;;;9.61;75.04;101604.72;5026276;28;20107;-71
2021/10/01 04:20:34;;;;;;;5.82;0.90;;;;;;;9.77;73.80;101609.41;5027921;28;20029;-73
2021/10/01 04:23:00;;;;;;;7.72;0.88;;;;;;;9.73;74.04;101605.44;5026460;28;20032;-71
2021/10/01 04:25:44;;;;;;;7.60;1.10;;;;;;;9.79;74.08;101599.72;5020496;28;20079;-72
2021/10/01 04:28:10;;;;;;;6.93;1.08;;;;;;;9.78;73.98;101605.88;5030551;28;20025;-71
2021/10/01 04:30:43;;;;;;;5.00;1.00;;;;;;;9.99;72.90;101595.44;5023609;28;20117;-70
2021/10/01 04:33:23;;;;;;;1.67;0.80;;;;;;;9.86;73.54;101592.25;5029046;28;20067;-71
2021/10/01 04:35:51;;;;;;;4.20;0.82;;;;;;;9.85;73.31;101594.03;5032777;28;20025;-71
2021/10/01 04:38:18;;;;;;;4.53;0.80;;;;;;;9.70;73.84;101593.59;5033058;28;20041;-73
2021/10/01 04:40:46;;;;;;;7.00;1.42;;;;;;;9.86;73.23;101590.47;5027305;28;20034;-71
2021/10/01 04:43:11;;;;;;;3.05;1.02;;;;;;;9.82;73.16;101591.69;5031142;28;20100;-71
2021/10/01 04:46:00;;;;;;;7.70;1.10;;;;;;;9.78;73.58;101582.56;5036410;28;20765;-72
2021/10/01 04:48:25;;;;;;;4.40;0.88;;;;;;;9.71;73.55;101584.03;5024539;28;20037;-71
2021/10/01 04:50:52;;;;;;;6.55;1.13;;;;;;;9.63;73.68;101581.28;5012347;28;20388;-71
2021/10/01 04:53:17;;;;;;;5.90;1.02;;;;;;;9.70;73.38;101579.78;5028488;28;20087;-70
2021/10/01 04:55:46;;;;;;;6.07;1.48;;;;;;;9.67;73.71;101578.28;5009082;28;20036;-72
2021/10/01 04:58:12;;;;;;;4.38;1.10;;;;;;;9.69;73.68;101573.00;5022987;28;20906;-71
2021/10/01 05:01:01;;;;;;;2.85;0.90;;;;;;;9.67;73.36;101570.53;5030562;28;20126;-70
2021/10/01 05:03:45;;;;;;;11.70;1.88;;;;;;;9.59;73.71;101572.13;5024645;28;20471;-71
2021/10/01 05:06:41;;;;;;;5.07;0.88;;;;;;;9.54;74.14;101564.75;5001797;28;20041;-72
2021/10/01 05:09:32;;;;;;;5.13;0.90;;;;;;;9.54;73.92;101575.09;5025044;28;20060;-72
2021/10/01 05:12:21;;;;;;;3.38;0.90;;;;;;;9.58;73.62;101571.31;4989952;28;20034;-70
2021/10/01 05:15:06;;;;;;;8.40;1.23;;;;;;;9.58;73.80;101570.50;5026144;28;20526;-73
2021/10/01 05:17:52;;;;;;;8.68;1.40;;;;;;;9.56;73.72;101568.03;5022929;28;20067;-72
2021/10/01 05:20:44;;;;;;;6.03;1.17;;;;;;;9.52;73.92;101566.66;5017528;28;20046;-70
2021/10/01 05:23:16;;;;;;;4.18;0.93;;;;;;;9.42;74.23;101574.38;5009656;28;20029;-71
2021/10/01 05:25:41;;;;;;;8.38;1.20;;;;;;;9.51;73.98;101570.19;5030727;28;20457;-72
2021/10/01 05:28:07;;;;;;;3.33;1.00;;;;;;;9.50;73.79;101565.97;5022509;28;20056;-72
2021/10/01 05:30:32;;;;;;;6.47;1.85;;;;;;;9.44;74.15;101564.72;5027617;28;20279;-71
2021/10/01 05:32:58;;;;;;;11.52;1.13;;;;;;;9.53;73.47;101561.34;5024386;28;20052;-71
2021/10/01 05:35:24;;;;;;;7.45;1.40;;;;;;;9.48;73.50;101562.69;5026749;28;20025;-71
2021/10/01 05:37:50;;;;;;;5.82;1.20;;;;;;;9.41;74.11;101561.56;5028455;28;20439;-71
2021/10/01 05:40:15;;;;;;;3.45;1.10;;;;;;;9.30;74.22;101559.88;5010989;28;20037;-71
2021/10/01 05:42:41;;;;;;;7.50;1.25;;;;;;;9.29;74.59;101553.06;5030929;28;20029;-71
2021/10/01 05:45:09;;;;;;;5.80;1.17;;;;;;;9.31;74.10;101553.75;5027038;28;20060;-71
2021/10/01 05:47:53;;;;;;;6.30;1.35;;;;;;;9.35;73.99;101561.13;5023346;28;20076;-71
2021/10/01 05:50:41;;;;;;;7.65;1.42;;;;;;;9.25;74.56;101556.84;5025927;28;20135;-71
2021/10/01 05:56:29;;;;;;;3.35;1.00;;;;;;;9.26;74.36;101561.91;5022555;28;20167;-71
2021/10/01 05:59:21;;;;;;;8.85;1.42;;;;;;;9.26;74.79;101553.31;5024644;28;20435;-73
2021/10/01 06:01:47;;;;;;;5.80;1.67;;;;;;;9.34;74.35;101545.72;5023461;28;20029;-72
2021/10/01 06:04:14;;;;;;;11.85;1.65;;;;;;;9.35;74.03;101542.19;5019968;28;20040;-71
2021/10/01 06:06:43;;;;;;;8.43;1.83;;;;;;;9.38;74.17;101554.88;5010681;28;20033;-71
2021/10/01 06:09:14;;;;;;;3.15;1.33;;;;;;;9.35;74.37;101550.78;5028362;28;20044;-72
2021/10/01 06:11:40;;;;;;;2.58;1.10;;;;;;;9.38;74.21;101546.28;5033827;28;20041;-71
2021/10/01 06:14:11;;;;;;;6.57;1.58;;;;;;;9.34;74.59;101550.91;5028631;28;20037;-72
2021/10/01 06:16:38;;;;;;;11.35;1.25;;;;;;;9.48;74.31;101547.97;5025593;28;20059;-71
2021/10/01 06:19:04;;;;;;;4.57;1.17;;;;;;;9.56;73.51;101552.50;5025937;28;20032;-70
2021/10/01 06:21:30;;;;;;;3.28;1.52;;;;;;;9.62;73.08;101541.59;5014577;28;20084;-70
2021/10/01 06:23:56;;;;;;;9.02;1.23;;;;;;;9.65;73.20;101548.31;5028743;28;20049;-71
2021/10/01 06:26:22;;;;;;;8.23;1.42;;;;;;;9.70;72.99;101541.78;5024698;28;20080;-71
2021/10/01 06:28:48;;;;;;;7.45;1.30;;;;;;;9.89;72.96;101538.41;5026397;28;20025;-71
2021/10/01 06:31:14;;;;;;;6.82;1.23;;;;;;;10.06;71.83;101542.13;5032712;28;20075;-71
2021/10/01 06:33:40;;;;;;;5.40;1.50;;;;;;;10.30;71.23;101539.19;5036960;28;20438;-71
2021/10/01 06:36:06;;;;;;;4.55;1.05;;;;;;;10.60;70.37;101539.16;5036751;28;20060;-71
2021/10/01 06:38:31;;;;;;;4.63;1.15;;;;;;;10.79;69.00;101536.53;5030111;28;20162;-71
2021/10/01 06:41:00;;;;;;;8.52;2.25;;;;;;;10.86;68.42;101535.03;5034619;28;20411;-72
2021/10/01 06:43:27;;;;;;;4.30;1.73;;;;;;;10.92;68.17;101538.84;5033700;28;20475;-71
2021/10/01 06:45:56;;;;;;;4.68;0.95;;;;;;;11.01;68.62;101535.41;5034142;28;20101;-71
2021/10/01 06:48:29;;;;;;;6.30;1.52;;;;;;;11.10;67.31;101529.38;5034643;28;20060;-71
2021/10/01 08:19:11;;;;;;;6.97;2.08;;;;;;;14.16;58.61;101495.75;5026456;28;20033;-73
2021/10/01 08:21:37;;;;;;;4.68;1.15;;;;;;;14.10;58.05;101493.00;5015916;28;20040;-71
2021/10/01 08:24:02;;;;;;;10.48;1.00;;;;;;;14.23;58.05;101487.31;5033903;28;20399;-73
2021/10/01 08:26:29;;;;;;;3.22;0.95;;;;;;;14.23;56.96;101485.50;5028651;28;20071;-74
2021/10/01 08:28:55;;;;;;;4.07;0.90;;;;;;;14.84;55.05;101478.09;5028705;28;20033;-72
2021/10/01 08:31:21;;;;;;;10.77;1.85;;;;;;;15.17;54.21;101483.22;5028262;28;20037;-72
2021/10/01 08:33:47;;;;;;;10.45;1.27;;;;;;;15.63;52.85;101479.91;5025958;28;20029;-72
2021/10/01 08:36:17;;;;;;;4.60;0.80;;;;;;;16.76;51.72;101481.75;5036388;28;20024;-72
2021/10/01 08:38:50;;;;;;;3.40;1.00;;;;;;;17.27;48.97;101470.53;5027432;28;20108;-72
2021/10/01 08:41:16;;;;;;;7.38;1.45;;;;;;;17.78;48.32;101467.88;5030024;28;20186;-72
2021/10/01 08:43:43;;;;;;;5.90;1.02;;;;;;;17.78;47.53;101470.50;5033214;28;20037;-72
2021/10/01 08:46:10;;;;;;;4.03;1.15;;;;;;;17.58;48.37;101457.19;5031594;28;20033;-74
2021/10/01 08:48:39;;;;;;;4.40;0.80;;;;;;;17.27;48.33;101462.69;5029561;28;20053;-72
2021/10/01 08:51:07;;;;;;;4.22;0.80;;;;;;;17.48;48.14;101477.66;5031073;28;20074;-71
2021/10/01 08:53:33;;;;;;;5.57;1.75;;;;;;;17.47;47.98;101468.97;5028458;28;20084;-72
2021/10/01 08:56:00;;;;;;;2.42;0.88;;;;;;;17.29;48.77;101465.94;5034334;28;20391;-72
2021/10/01 08:58:27;;;;;;;1.17;0.65;;;;;;;17.50;48.66;101473.84;5036058;28;20040;-72
2021/10/01 09:00:55;;;;;;;3.28;0.82;;;;;;;17.45;48.15;101462.28;5024110;28;20049;-72
2021/10/01 09:03:21;;;;;;;6.72;1.63;;;;;;;17.42;48.99;101470.50;5013221;28;20108;-71
2021/10/01 09:05:46;;;;;;;7.93;1.00;;;;;;;17.75;47.95;101470.88;5029496;28;20038;-73
2021/10/01 09:08:17;;;;;;;8.98;1.73;;;;;;;17.58;47.87;101464.25;5039176;28;20025;-73
2021/10/01 09:10:58;;;;;;;7.65;1.30;;;;;;;17.75;49.44;101477.94;5038210;28;20045;-71
2021/10/01 09:13:26;;;;;;;4.75;1.13;;;;;;;17.45;48.47;101467.53;5040354;28;20061;-71
2021/10/01 09:16:04;;;;;;;5.95;1.15;;;;;;;17.53;48.38;101464.78;5039085;28;20059;-71
2021/10/01 09:18:33;;;;;;;2.65;1.02;;;;;;;17.76;48.38;101466.44;5046337;28;20028;-71
2021/10/01 09:21:22;;;;;;;7.78;1.05;;;;;;;17.78;48.86;101456.56;5038251;28;20032;-73
2021/10/01 09:24:01;;;;;;;10.65;0.98;;;;;;;17.67;49.90;101457.88;5034559;28;20060;-72
2021/10/01 09:26:32;;;;;;;6.63;1.15;;;;;;;17.50;49.42;101452.88;5045004;23;20049;-69
2021/10/01 09:29:07;;;;;;;6.38;0.90;;;;;;;17.50;50.33;101452.06;5027309;28;20079;-70
2021/10/01 09:31:37;;;;;;;12.38;1.42;;;;;;;17.36;49.60;101450.28;5029227;28;20061;-69
2021/10/01 09:34:06;;;;;;;6.75;0.90;;;;;;;16.75;49.79;101440.88;5016600;28;20452;-69
2021/10/01 09:36:33;;;;;;;10.13;0.90;;;;;;;16.42;51.91;101443.81;5029648;28;20549;-70
2021/10/01 09:39:03;;;;;;;5.10;0.80;;;;;;;16.37;51.93;101440.09;5037433;28;20040;-70
2021/10/01 09:41:33;;;;;;;9.45;1.33;;;;;;;16.36;53.86;101441.91;5029400;28;20049;-70
2021/10/01 09:44:01;;;;;;;2.97;1.33;;;;;;;16.08;52.80;101426.78;5021866;28;20551;-70
2021/10/01 09:46:48;;;;;;;4.60;1.50;;;;;;;16.29;52.51;101423.53;5042102;28;20059;-70
2021/10/01 09:49:15;;;;;;;6.47;0.88;;;;;;;16.52;51.98;101417.41;5021463;28;20037;-70
2021/10/01 09:51:51;;;;;;;4.72;0.85;;;;;;;16.76;51.86;101413.66;5035589;28;20033;-70
2021/10/01 09:54:20;;;;;;;5.63;1.00;;;;;;;16.76;50.33;101412.88;5029462;28;20028;-69
2021/10/01 09:56:46;;;;;;;8.52;1.33;;;;;;;16.78;50.55;101416.91;5029640;28;20418;-71
2021/10/01 09:59:22;;;;;;;4.90;0.70;;;;;;;16.93;51.10;101414.31;5025685;28;20037;-70
2021/10/01 10:01:59;;;;;;;5.75;1.10;;;;;;;17.09;51.02;101408.06;5030617;28;20095;-69
2021/10/01 10:04:27;;;;;;;6.05;0.80;;;;;;;17.39;50.53;101405.38;5035701;28;20025;-70
2021/10/01 10:06:53;;;;;;;3.38;0.90;;;;;;;17.36;50.82;101406.53;5034536;28;20037;-70
2021/10/01 10:09:49;;;;;;;4.82;0.90;;;;;;;17.55;50.05;101396.44;5037196;28;20022;-70
2021/10/01 10:12:22;;;;;;;6.35;1.42;;;;;;;17.51;50.35;101388.94;5046086;28;20122;-70
2021/10/01 10:14:50;;;;;;;3.80;0.65;;;;;;;17.45;51.52;101397.56;5033208;28;20033;-70
2021/10/01 10:17:24;;;;;;;4.28;1.00;;;;;;;17.48;50.31;101386.72;5029111;28;20033;-70
2021/10/01 10:19:53;;;;;;;8.43;1.58;;;;;;;17.47;52.10;101390.31;5038038;28;20036;-70
2021/10/01 10:22:19;;;;;;;6.93;1.00;;;;;;;17.42;50.37;101386.63;5035444;28;20021;-69
2021/10/01 10:24:46;;;;;;;6.75;1.05;;;;;;;17.35;51.24;101385.75;5045152;28;20352;-71
2021/10/01 10:27:12;;;;;;;6.07;1.02;;;;;;;17.42;50.58;101384.84;5035831;28;20044;-69
2021/10/01 10:29:43;;;;;;;5.88;1.00;;;;;;;17.39;50.25;101387.03;5028941;28;20041;-69
2021/10/01 10:32:11;;;;;;;5.55;0.90;;;;;;;17.44;51.22;101382.00;5041206;28;20029;-70
2021/10/01 10:34:51;;;;;;;7.63;1.33;;;;;;;17.54;48.94;101372.03;5031411;28;20486;-69
2021/10/01 10:37:18;;;;;;;4.97;1.10;;;;;;;17.65;50.50;101368.91;5034793;28;20112;-70
2021/10/01 10:39:52;;;;;;;8.98;1.08;;;;;;;17.92;50.76;101365.72;5046915;28;20040;-70
2021/10/01 10:42:38;;;;;;;7.78;0.93;;;;;;;17.96;50.16;101365.13;5028441;28;20159;-70
2021/10/01 10:45:07;;;;;;;9.48;1.30;;;;;;;18.00;49.43;101360.31;5044425;28;20028;-70
2021/10/01 10:47:44;;;;;;;5.45;1.70;;;;;;;18.22;48.86;101354.00;5032379;28;20451;-69
2021/10/01 10:50:25;;;;;;;7.75;0.60;;;;;;;18.30;47.57;101337.28;5022157;28;20044;-69
2021/10/01 10:55:36;;;;;;;3.88;0.80;;;;;;;18.17;47.09;101350.34;5032944;28;20040;-69
2021/10/01 10:58:27;;;;;;;4.45;0.80;;;;;;;18.26;45.64;101330.81;5030702;28;20032;-69
2021/10/01 11:01:02;;;;;;;7.53;1.05;;;;;;;18.38;46.00;101331.88;5025942;28;20037;-70
2021/10/01 11:03:34;;;;;;;5.70;0.90;;;;;;;18.39;47.00;101324.81;5028723;28;20369;-69
2021/10/01 11:06:09;;;;;;;7.78;1.42;;;;;;;18.41;48.34;101342.00;5032422;28;20048;-70
2021/10/01 11:08:39;;;;;;;1.80;0.88;;;;;;;18.39;46.25;101336.13;5034735;28;20033;-71
2021/10/01 11:11:34;;;;;;;6.55;1.10;;;;;;;18.43;45.62;101326.84;5033451;28;20035;-70
2021/10/01 11:14:15;;;;;;;8.00;0.93;;;;;;;18.53;46.87;101320.44;5032723;28;20083;-69
2021/10/01 11:17:07;;;;;;;3.90;1.20;;;;;;;18.61;45.76;101326.31;5031747;28;20041;-69
2021/10/01 11:19:43;;;;;;;3.33;0.80;;;;;;;18.72;45.30;101311.00;5033608;28;20347;-70
2021/10/01 11:22:30;;;;;;;6.93;0.70;;;;;;;18.81;47.35;101312.47;5026822;28;20029;-71
2021/10/01 11:24:58;;;;;;;3.22;1.00;;;;;;;19.09;45.98;101304.44;5035385;28;20041;-70
2021/10/01 11:27:24;;;;;;;4.22;1.58;;;;;;;19.20;46.00;101303.06;5031723;28;20395;-71
2021/10/01 11:29:49;;;;;;;4.90;0.70;;;;;;;19.18;46.11;101300.63;5041202;28;20024;-70
2021/10/01 11:32:24;;;;;;;5.68;0.80;;;;;;;19.31;45.48;101299.81;5039082;28;20527;-69
2021/10/01 11:34:52;;;;;;;3.60;0.80;;;;;;;19.33;44.71;101297.00;5031426;28;20033;-70
2021/10/01 11:37:24;;;;;;;7.03;0.82;;;;;;;19.18;44.78;101295.38;5027701;28;20124;-70
2021/10/01 11:39:51;;;;;;;11.13;1.38;;;;;;;19.13;46.31;101289.88;5023705;28;20410;-70
2021/10/01 11:42:27;;;;;;;3.35;0.82;;;;;;;19.13;45.35;101284.63;5030428;28;20040;-69
2021/10/01 11:44:54;;;;;;;5.40;1.13;;;;;;;19.19;43.89;101283.03;5030688;28;20120;-70
2021/10/01 11:47:20;;;;;;;4.38;1.08;;;;;;;19.25;44.62;101283.03;5025532;28;20064;-69
2021/10/01 11:49:57;;;;;;;8.73;2.00;;;;;;;19.24;43.38;101283.22;5027716;28;20072;-70
2021/10/01 11:52:24;;;;;;;5.28;0.77;;;;;;;19.28;44.20;101278.38;5030405;28;20021;-70
2021/10/01 11:54:58;;;;;;;4.55;0.70;;;;;;;19.30;43.94;101284.25;5028507;28;20053;-69
2021/10/01 11:57:37;;;;;;;2.28;0.80;;;;;;;19.36;45.26;101280.81;5024964;28;20025;-70
2021/10/01 12:00:06;;;;;;;4.80;1.30;;;;;;;19.30;44.74;101276.38;5036283;28;20156;-70
2021/10/01 12:02:40;;;;;;;6.30;1.10;;;;;;;19.26;43.55;101271.50;5007304;28;20150;-70
2021/10/01 12:05:27;;;;;;;2.13;0.80;;;;;;;19.14;44.88;101262.59;5025705;28;20037;-70
2021/10/01 12:08:03;;;;;;;3.80;0.70;;;;;;;19.34;44.34;101261.78;5025419;28;21496;-71
2021/10/01 12:10:35;;;;;;;3.65;0.98;;;;;;;19.32;44.14;101261.19;5024759;28;20041;-69
2021/10/01 12:13:01;;;;;;;4.00;0.75;;;;;;;19.39;43.48;101249.66;5027556;28;20111;-69
2021/10/01 12:15:39;;;;;;;6.13;1.33;;;;;;;19.33;43.51;101244.41;5027200;28;20352;-70
2021/10/01 12:18:05;;;;;;;2.88;0.60;;;;;;;19.54;43.27;101240.75;5026359;28;20037;-70
2021/10/01 12:20:45;;;;;;;3.80;0.98;;;;;;;19.37;44.25;101241.16;5026091;28;20377;-70
2021/10/01 12:23:25;;;;;;;2.35;0.60;;;;;;;19.51;45.37;101236.69;5030927;28;20036;-69
2021/10/01 12:25:52;;;;;;;6.28;1.80;;;;;;;19.63;44.12;101229.00;5025082;28;20357;-70
2021/10/01 12:28:19;;;;;;;6.18;1.23;;;;;;;19.63;44.68;101234.25;5009863;28;20160;-71
2021/10/01 12:30:45;;;;;;;4.40;1.15;;;;;;;19.69;44.54;101241.31;5030467;28;20064;-70
2021/10/01 12:33:11;;;;;;;8.18;1.95;;;;;;;19.64;43.61;101239.28;5025334;28;20036;-69
2021/10/01 12:35:37;;;;;;;12.23;2.17;;;;;;;19.65;44.32;101243.56;5031228;28;20052;-70
2021/10/01 12:38:03;;;;;;;4.80;1.00;;;;;;;19.56;44.30;101242.16;5034281;28;20037;-69
2021/10/01 12:40:30;;;;;;;2.78;0.95;;;;;;;19.65;43.17;101237.50;5033815;28;20040;-69
2021/10/01 12:42:55;;;;;;;2.63;0.95;;;;;;;19.65;42.89;101235.66;5026104;28;20021;-70
2021/10/01 12:45:21;;;;;;;4.13;0.90;;;;;;;19.58;42.19;101242.75;5029358;28;20108;-70
2021/10/01 12:47:50;;;;;;;4.97;1.02;;;;;;;19.64;42.67;101238.50;5030539;28;20075;-70
2021/10/01 12:50:33;;;;;;;3.78;0.80;;;;;;;19.62;43.16;101236.06;5019440;28;20084;-70
2021/10/01 12:53:06;;;;;;;7.65;0.90;;;;;;;19.65;42.96;101219.09;5029321;28;20510;-70
2021/10/01 12:55:39;;;;;;;9.07;0.85;;;;;;;19.50;42.48;101229.84;5033115;28;20041;-70
2021/10/01 12:58:05;;;;;;;6.25;1.45;;;;;;;19.50;43.85;101229.84;5030845;28;20025;-69
2021/10/01 13:00:40;;;;;;;3.78;1.10;;;;;;;19.51;42.83;101228.00;5039071;28;20036;-70
2021/10/01 13:03:07;;;;;;;3.15;0.75;;;;;;;19.54;41.50;101222.34;5030437;28;20067;-70
2021/10/01 13:05:39;;;;;;;3.63;0.90;;;;;;;19.39;42.11;101222.56;5031702;28;20431;-70
2021/10/01 13:08:04;;;;;;;7.07;0.98;;;;;;;19.40;41.07;101221.53;5031672;28;20045;-69
2021/10/01 13:10:43;;;;;;;5.55;1.35;;;;;;;19.26;42.73;101220.75;5026949;28;20124;-69
2021/10/01 13:13:10;;;;;;;3.60;1.00;;;;;;;19.33;43.29;101221.56;5018295;28;20044;-70
2021/10/01 13:15:42;;;;;;;6.68;0.55;;;;;;;19.45;43.99;101209.38;5029231;28;20115;-69
2021/10/01 13:18:31;;;;;;;4.47;1.65;;;;;;;19.34;42.12;101209.22;5024216;28;20041;-70
2021/10/01 13:21:23;;;;;;;6.80;0.82;;;;;;;19.29;43.03;101203.75;5033273;28;20035;-70
2021/10/01 13:24:00;;;;;;;4.20;1.20;;;;;;;19.31;43.18;101191.22;5024121;28;20128;-70
2021/10/01 13:26:33;;;;;;;4.22;1.00;;;;;;;19.38;42.03;101206.00;5029804;28;20475;-70